Trà Nóc Airport
VVCT : now visible

Airfield :











YOU CAN JOIN US ON...

 
LOGIN :

Register | Disclaimer

   EN    FR    IT 

 









Legend :    VFR   Marginal VFR   IFR   Intensive IFR   Very Intensive IFR
Visi :
Ceiling :
>= 8 km
>= 3000ft
5 to 8 km
1000 to 3000 ft
1500m to 5 km
500 to 1000 ft
800 to 1500m
200 to 500 ft
< 800m
< 200 ft
Symbols :   Thunderstorms  Fog  Heavy snow  Heavy precipitations  Wind > 20 kt






- Airport Elevation : 9 ft
- IATA code : VCA


VVCT - Trà Nóc

CURRENT METAR :
  • 271130Z 27006KT 9999 SCT013 BKN040 27/24 Q1005 NOSIG

EXPIRED METARs :
  • 271100Z 26006KT 9999 SCT013 BKN040 26/24 Q1005 NOSIG
  • 271030Z 26011KT 9999 SCT013 BKN040 27/23 Q1005 NOSIG
  • 271000Z 26007KT 9999 SCT013 BKN040 27/23 Q1004 NOSIG
  • 270930Z 26007KT 220V290 9999 SCT013 BKN040 27/23 Q1004 NOSIG
  • 270900Z 25009KT 220V290 9999 SCT013 BKN040 27/23 Q1004 NOSIG

TAF TAF VVCT
Valid from the 27 at 12:00 until the 28 at 12:00 UTC


271100Z 2712/2812 27010KT 9999 SCT013 BKN040
TEMPO 2717/2722 5000 SHRA BKN013 FEW015CB BKN040
TEMPO 2722/2804 27015G30KT 3000 TSRA BKN010 SCT013CB BKN040
TEMPO 2804/2808 5000 SHRA BKN013 FEW015CB BKN040



MET'MAP, your aeronautical weather chart ! - Copyright ORBIFLY December 2007 - Disclaimer

ORBIFLY MET'MAP TEAM :

Programming & Development : Alexandra Zaïnal
Original concept : Baudouin d'Aumeries
Technical & hardware support : Manuel Goepfert
Assistance : Marc-Olivier Méhu




SOURCES & CREDITS :

   NOAA       Earth
Advisory